sensor_id;sensor_type;location;lat;lon;timestamp;P1;durP1;ratioP1;P2;durP2;ratioP2
58972;SDS011;44750;52.040;7.472;2023-08-24T00:03:45;3.45;;;1.77;;
58972;SDS011;44750;52.040;7.472;2023-08-24T00:08:45;3.03;;;2.07;;
58972;SDS011;44750;52.040;7.472;2023-08-24T00:13:46;3.58;;;2.35;;
58972;SDS011;44750;52.040;7.472;2023-08-24T00:18:46;4.70;;;1.90;;
58972;SDS011;44750;52.040;7.472;2023-08-24T00:23:46;2.30;;;1.90;;
58972;SDS011;44750;52.040;7.472;2023-08-24T00:28:47;3.45;;;2.13;;
58972;SDS011;44750;52.040;7.472;2023-08-24T00:33:47;11.82;;;1.90;;
58972;SDS011;44750;52.040;7.472;2023-08-24T00:38:47;7.35;;;2.70;;
58972;SDS011;44750;52.040;7.472;2023-08-24T00:43:47;3.25;;;1.90;;
58972;SDS011;44750;52.040;7.472;2023-08-24T00:48:48;4.53;;;2.08;;
58972;SDS011;44750;52.040;7.472;2023-08-24T00:53:49;3.03;;;1.80;;
58972;SDS011;44750;52.040;7.472;2023-08-24T00:58:50;2.65;;;1.80;;
58972;SDS011;44750;52.040;7.472;2023-08-24T01:03:51;2.03;;;1.58;;
58972;SDS011;44750;52.040;7.472;2023-08-24T01:08:51;2.33;;;1.98;;
58972;SDS011;44750;52.040;7.472;2023-08-24T01:19:42;3.63;;;2.25;;
58972;SDS011;44750;52.040;7.472;2023-08-24T01:24:45;3.38;;;2.05;;
58972;SDS011;44750;52.040;7.472;2023-08-24T01:29:50;4.30;;;1.67;;
58972;SDS011;44750;52.040;7.472;2023-08-24T01:34:51;3.08;;;1.88;;
58972;SDS011;44750;52.040;7.472;2023-08-24T01:39:54;4.22;;;2.08;;
58972;SDS011;44750;52.040;7.472;2023-08-24T01:45:04;2.85;;;2.10;;
58972;SDS011;44750;52.040;7.472;2023-08-24T01:50:07;3.78;;;2.10;;
58972;SDS011;44750;52.040;7.472;2023-08-24T01:55:07;3.25;;;2.10;;
58972;SDS011;44750;52.040;7.472;2023-08-24T02:00:08;6.40;;;2.33;;
58972;SDS011;44750;52.040;7.472;2023-08-24T02:05:08;3.85;;;2.67;;
58972;SDS011;44750;52.040;7.472;2023-08-24T02:10:08;3.00;;;1.90;;
58972;SDS011;44750;52.040;7.472;2023-08-24T02:15:09;3.55;;;2.47;;
58972;SDS011;44750;52.040;7.472;2023-08-24T02:20:09;4.00;;;2.00;;
58972;SDS011;44750;52.040;7.472;2023-08-24T02:25:10;6.35;;;3.55;;
58972;SDS011;44750;52.040;7.472;2023-08-24T02:30:11;3.75;;;2.25;;
58972;SDS011;44750;52.040;7.472;2023-08-24T02:35:12;3.90;;;2.10;;
58972;SDS011;44750;52.040;7.472;2023-08-24T02:40:13;2.13;;;1.70;;
58972;SDS011;44750;52.040;7.472;2023-08-24T02:45:13;4.47;;;2.80;;
58972;SDS011;44750;52.040;7.472;2023-08-24T02:50:13;8.13;;;2.53;;
58972;SDS011;44750;52.040;7.472;2023-08-24T02:55:13;3.38;;;2.50;;
58972;SDS011;44750;52.040;7.472;2023-08-24T03:00:14;5.45;;;2.42;;
58972;SDS011;44750;52.040;7.472;2023-08-24T03:05:14;4.78;;;2.50;;
58972;SDS011;44750;52.040;7.472;2023-08-24T03:10:14;3.97;;;2.40;;
58972;SDS011;44750;52.040;7.472;2023-08-24T03:15:14;3.57;;;2.20;;
58972;SDS011;44750;52.040;7.472;2023-08-24T03:20:15;2.47;;;1.80;;
58972;SDS011;44750;52.040;7.472;2023-08-24T03:25:15;3.28;;;2.17;;
58972;SDS011;44750;52.040;7.472;2023-08-24T03:30:15;4.17;;;2.40;;
58972;SDS011;44750;52.040;7.472;2023-08-24T03:35:16;9.93;;;2.92;;
58972;SDS011;44750;52.040;7.472;2023-08-24T03:40:16;4.53;;;2.57;;
58972;SDS011;44750;52.040;7.472;2023-08-24T03:45:16;4.35;;;2.63;;
58972;SDS011;44750;52.040;7.472;2023-08-24T03:50:16;3.95;;;2.92;;
58972;SDS011;44750;52.040;7.472;2023-08-24T03:55:17;4.73;;;3.00;;
58972;SDS011;44750;52.040;7.472;2023-08-24T04:00:17;6.90;;;4.53;;
58972;SDS011;44750;52.040;7.472;2023-08-24T04:05:18;6.82;;;3.78;;
58972;SDS011;44750;52.040;7.472;2023-08-24T04:10:18;4.38;;;3.40;;
58972;SDS011;44750;52.040;7.472;2023-08-24T04:15:18;3.47;;;2.92;;
58972;SDS011;44750;52.040;7.472;2023-08-24T04:20:18;5.60;;;2.95;;
58972;SDS011;44750;52.040;7.472;2023-08-24T04:25:19;4.63;;;3.38;;
58972;SDS011;44750;52.040;7.472;2023-08-24T04:30:19;5.78;;;4.05;;
58972;SDS011;44750;52.040;7.472;2023-08-24T04:35:19;5.03;;;3.22;;
58972;SDS011;44750;52.040;7.472;2023-08-24T04:40:19;4.63;;;3.58;;
58972;SDS011;44750;52.040;7.472;2023-08-24T04:45:20;6.90;;;3.70;;
58972;SDS011;44750;52.040;7.472;2023-08-24T04:50:20;5.22;;;3.95;;
58972;SDS011;44750;52.040;7.472;2023-08-24T04:55:20;4.65;;;3.33;;
58972;SDS011;44750;52.040;7.472;2023-08-24T05:00:20;5.53;;;3.80;;
58972;SDS011;44750;52.040;7.472;2023-08-24T05:05:21;3.10;;;2.80;;
58972;SDS011;44750;52.040;7.472;2023-08-24T05:10:21;4.32;;;3.70;;
58972;SDS011;44750;52.040;7.472;2023-08-24T05:15:21;9.35;;;5.20;;
58972;SDS011;44750;52.040;7.472;2023-08-24T05:20:22;9.43;;;5.90;;
58972;SDS011;44750;52.040;7.472;2023-08-24T05:25:22;8.07;;;6.70;;
58972;SDS011;44750;52.040;7.472;2023-08-24T05:30:22;7.05;;;5.55;;
58972;SDS011;44750;52.040;7.472;2023-08-24T05:35:23;7.68;;;5.40;;
58972;SDS011;44750;52.040;7.472;2023-08-24T05:40:23;6.78;;;5.20;;
58972;SDS011;44750;52.040;7.472;2023-08-24T05:45:23;6.63;;;5.00;;
58972;SDS011;44750;52.040;7.472;2023-08-24T05:50:24;10.23;;;5.10;;
58972;SDS011;44750;52.040;7.472;2023-08-24T05:55:24;6.65;;;5.43;;
58972;SDS011;44750;52.040;7.472;2023-08-24T06:00:24;6.00;;;5.10;;
58972;SDS011;44750;52.040;7.472;2023-08-24T06:05:24;7.07;;;5.32;;
58972;SDS011;44750;52.040;7.472;2023-08-24T06:10:25;7.72;;;5.40;;
58972;SDS011;44750;52.040;7.472;2023-08-24T06:15:25;7.25;;;5.25;;
58972;SDS011;44750;52.040;7.472;2023-08-24T06:20:25;12.05;;;5.50;;
58972;SDS011;44750;52.040;7.472;2023-08-24T06:25:25;5.03;;;4.35;;
58972;SDS011;44750;52.040;7.472;2023-08-24T06:30:26;10.50;;;5.72;;
58972;SDS011;44750;52.040;7.472;2023-08-24T06:35:26;8.40;;;5.78;;
58972;SDS011;44750;52.040;7.472;2023-08-24T06:40:27;6.65;;;5.63;;
58972;SDS011;44750;52.040;7.472;2023-08-24T06:45:27;8.50;;;5.43;;
58972;SDS011;44750;52.040;7.472;2023-08-24T06:50:27;10.55;;;6.03;;
58972;SDS011;44750;52.040;7.472;2023-08-24T06:55:27;7.45;;;6.10;;
58972;SDS011;44750;52.040;7.472;2023-08-24T07:00:28;16.77;;;5.18;;
58972;SDS011;44750;52.040;7.472;2023-08-24T07:05:28;7.75;;;6.00;;
58972;SDS011;44750;52.040;7.472;2023-08-24T07:10:28;7.15;;;5.75;;
58972;SDS011;44750;52.040;7.472;2023-08-24T07:15:28;7.83;;;6.07;;
58972;SDS011;44750;52.040;7.472;2023-08-24T07:20:29;9.38;;;6.10;;
58972;SDS011;44750;52.040;7.472;2023-08-24T07:25:29;7.10;;;5.53;;
58972;SDS011;44750;52.040;7.472;2023-08-24T07:30:30;7.10;;;4.97;;
58972;SDS011;44750;52.040;7.472;2023-08-24T07:35:31;6.82;;;4.72;;
58972;SDS011;44750;52.040;7.472;2023-08-24T07:40:32;5.95;;;4.88;;
58972;SDS011;44750;52.040;7.472;2023-08-24T07:45:32;5.30;;;4.13;;
58972;SDS011;44750;52.040;7.472;2023-08-24T07:50:32;7.32;;;4.55;;
58972;SDS011;44750;52.040;7.472;2023-08-24T07:55:32;13.07;;;5.18;;
58972;SDS011;44750;52.040;7.472;2023-08-24T08:00:32;6.78;;;4.65;;
58972;SDS011;44750;52.040;7.472;2023-08-24T08:05:33;8.10;;;5.18;;
58972;SDS011;44750;52.040;7.472;2023-08-24T08:10:33;6.57;;;4.57;;
58972;SDS011;44750;52.040;7.472;2023-08-24T08:15:33;5.15;;;4.50;;
58972;SDS011;44750;52.040;7.472;2023-08-24T08:20:33;6.40;;;4.60;;
58972;SDS011;44750;52.040;7.472;2023-08-24T08:25:34;5.68;;;4.18;;
58972;SDS011;44750;52.040;7.472;2023-08-24T08:30:34;5.70;;;3.95;;
58972;SDS011;44750;52.040;7.472;2023-08-24T08:35:34;12.07;;;5.22;;
58972;SDS011;44750;52.040;7.472;2023-08-24T08:40:36;4.85;;;4.20;;
58972;SDS011;44750;52.040;7.472;2023-08-24T08:45:37;7.88;;;4.18;;
58972;SDS011;44750;52.040;7.472;2023-08-24T08:50:37;6.13;;;5.05;;
58972;SDS011;44750;52.040;7.472;2023-08-24T08:55:37;5.38;;;4.82;;
58972;SDS011;44750;52.040;7.472;2023-08-24T09:00:38;8.27;;;4.75;;
58972;SDS011;44750;52.040;7.472;2023-08-24T09:05:39;4.07;;;3.40;;
58972;SDS011;44750;52.040;7.472;2023-08-24T09:10:39;4.77;;;3.30;;
58972;SDS011;44750;52.040;7.472;2023-08-24T09:15:39;6.18;;;3.17;;
58972;SDS011;44750;52.040;7.472;2023-08-24T09:20:40;3.63;;;2.22;;
58972;SDS011;44750;52.040;7.472;2023-08-24T09:25:46;3.25;;;2.78;;
58972;SDS011;44750;52.040;7.472;2023-08-24T09:30:47;2.63;;;2.20;;
58972;SDS011;44750;52.040;7.472;2023-08-24T09:35:52;4.22;;;2.80;;
58972;SDS011;44750;52.040;7.472;2023-08-24T09:40:54;4.15;;;2.72;;
58972;SDS011;44750;52.040;7.472;2023-08-24T09:45:56;3.40;;;2.38;;
58972;SDS011;44750;52.040;7.472;2023-08-24T09:50:56;19.52;;;2.63;;
58972;SDS011;44750;52.040;7.472;2023-08-24T09:56:00;3.65;;;2.80;;
58972;SDS011;44750;52.040;7.472;2023-08-24T10:01:02;3.33;;;2.30;;
58972;SDS011;44750;52.040;7.472;2023-08-24T10:06:03;5.28;;;3.28;;
58972;SDS011;44750;52.040;7.472;2023-08-24T10:11:05;2.90;;;2.38;;
58972;SDS011;44750;52.040;7.472;2023-08-24T10:16:07;4.05;;;2.70;;
58972;SDS011;44750;52.040;7.472;2023-08-24T10:21:08;6.68;;;3.22;;
58972;SDS011;44750;52.040;7.472;2023-08-24T10:26:09;2.70;;;2.20;;
58972;SDS011;44750;52.040;7.472;2023-08-24T10:31:10;3.72;;;2.67;;
58972;SDS011;44750;52.040;7.472;2023-08-24T10:36:12;5.15;;;3.08;;
58972;SDS011;44750;52.040;7.472;2023-08-24T10:41:13;10.05;;;3.00;;
58972;SDS011;44750;52.040;7.472;2023-08-24T10:46:14;3.73;;;2.23;;
58972;SDS011;44750;52.040;7.472;2023-08-24T10:56:15;3.10;;;1.88;;
58972;SDS011;44750;52.040;7.472;2023-08-24T11:01:17;2.42;;;1.45;;
58972;SDS011;44750;52.040;7.472;2023-08-24T11:06:19;5.22;;;2.28;;
58972;SDS011;44750;52.040;7.472;2023-08-24T11:11:23;3.28;;;1.85;;
58972;SDS011;44750;52.040;7.472;2023-08-24T11:16:38;5.38;;;1.60;;
58972;SDS011;44750;52.040;7.472;2023-08-24T11:21:39;2.95;;;1.55;;
58972;SDS011;44750;52.040;7.472;2023-08-24T11:26:43;4.47;;;1.52;;
58972;SDS011;44750;52.040;7.472;2023-08-24T11:31:45;2.53;;;1.88;;
58972;SDS011;44750;52.040;7.472;2023-08-24T11:36:47;3.40;;;1.92;;
58972;SDS011;44750;52.040;7.472;2023-08-24T11:42:00;2.20;;;2.00;;
58972;SDS011;44750;52.040;7.472;2023-08-24T11:47:01;2.72;;;2.15;;
58972;SDS011;44750;52.040;7.472;2023-08-24T11:52:02;4.22;;;2.40;;
58972;SDS011;44750;52.040;7.472;2023-08-24T11:57:05;3.55;;;2.08;;
58972;SDS011;44750;52.040;7.472;2023-08-24T12:02:06;6.80;;;1.90;;
58972;SDS011;44750;52.040;7.472;2023-08-24T12:07:11;1.70;;;1.50;;
58972;SDS011;44750;52.040;7.472;2023-08-24T12:12:15;1.63;;;1.23;;
58972;SDS011;44750;52.040;7.472;2023-08-24T12:17:16;5.38;;;1.67;;
58972;SDS011;44750;52.040;7.472;2023-08-24T12:22:17;3.85;;;1.73;;
58972;SDS011;44750;52.040;7.472;2023-08-24T12:27:19;3.80;;;2.17;;
58972;SDS011;44750;52.040;7.472;2023-08-24T12:32:20;3.20;;;1.60;;
58972;SDS011;44750;52.040;7.472;2023-08-24T12:42:54;3.35;;;1.90;;
58972;SDS011;44750;52.040;7.472;2023-08-24T12:47:54;2.55;;;1.60;;
58972;SDS011;44750;52.040;7.472;2023-08-24T12:52:55;2.53;;;1.83;;
58972;SDS011;44750;52.040;7.472;2023-08-24T12:57:55;3.28;;;2.03;;
58972;SDS011;44750;52.040;7.472;2023-08-24T13:02:55;2.33;;;1.88;;
58972;SDS011;44750;52.040;7.472;2023-08-24T13:07:56;3.55;;;2.08;;
58972;SDS011;44750;52.040;7.472;2023-08-24T13:12:56;2.90;;;1.90;;
58972;SDS011;44750;52.040;7.472;2023-08-24T13:17:56;3.22;;;1.90;;
58972;SDS011;44750;52.040;7.472;2023-08-24T13:22:56;2.28;;;1.60;;
58972;SDS011;44750;52.040;7.472;2023-08-24T13:27:56;4.80;;;1.48;;
58972;SDS011;44750;52.040;7.472;2023-08-24T13:32:56;4.45;;;1.55;;
58972;SDS011;44750;52.040;7.472;2023-08-24T13:37:57;6.50;;;1.45;;
58972;SDS011;44750;52.040;7.472;2023-08-24T13:42:57;2.78;;;1.40;;
58972;SDS011;44750;52.040;7.472;2023-08-24T13:47:57;2.33;;;1.60;;
58972;SDS011;44750;52.040;7.472;2023-08-24T13:52:57;2.67;;;1.57;;
58972;SDS011;44750;52.040;7.472;2023-08-24T13:57:58;1.92;;;1.30;;
58972;SDS011;44750;52.040;7.472;2023-08-24T14:02:58;1.45;;;1.30;;
58972;SDS011;44750;52.040;7.472;2023-08-24T14:07:58;2.33;;;1.45;;
58972;SDS011;44750;52.040;7.472;2023-08-24T14:12:58;2.53;;;1.55;;
58972;SDS011;44750;52.040;7.472;2023-08-24T14:17:59;3.78;;;1.50;;
58972;SDS011;44750;52.040;7.472;2023-08-24T14:22:59;3.80;;;1.83;;
58972;SDS011;44750;52.040;7.472;2023-08-24T14:27:59;2.20;;;1.77;;
58972;SDS011;44750;52.040;7.472;2023-08-24T14:32:59;2.33;;;1.52;;
58972;SDS011;44750;52.040;7.472;2023-08-24T14:37:59;4.00;;;2.08;;
58972;SDS011;44750;52.040;7.472;2023-08-24T14:43:00;2.92;;;1.95;;
58972;SDS011;44750;52.040;7.472;2023-08-24T14:48:00;3.13;;;1.83;;
58972;SDS011;44750;52.040;7.472;2023-08-24T14:53:00;4.38;;;1.77;;
58972;SDS011;44750;52.040;7.472;2023-08-24T14:58:00;3.95;;;2.15;;
58972;SDS011;44750;52.040;7.472;2023-08-24T15:03:00;3.20;;;1.75;;
58972;SDS011;44750;52.040;7.472;2023-08-24T15:08:01;3.90;;;2.05;;
58972;SDS011;44750;52.040;7.472;2023-08-24T15:13:01;2.00;;;1.40;;
58972;SDS011;44750;52.040;7.472;2023-08-24T15:18:01;9.88;;;2.85;;
58972;SDS011;44750;52.040;7.472;2023-08-24T15:23:01;7.47;;;4.27;;
58972;SDS011;44750;52.040;7.472;2023-08-24T15:28:02;7.90;;;5.17;;
58972;SDS011;44750;52.040;7.472;2023-08-24T15:33:03;15.80;;;11.85;;
58972;SDS011;44750;52.040;7.472;2023-08-24T15:38:04;3.05;;;2.25;;
58972;SDS011;44750;52.040;7.472;2023-08-24T15:43:04;3.85;;;2.08;;
58972;SDS011;44750;52.040;7.472;2023-08-24T15:48:06;1.85;;;1.52;;
58972;SDS011;44750;52.040;7.472;2023-08-24T15:53:06;3.87;;;1.77;;
58972;SDS011;44750;52.040;7.472;2023-08-24T15:58:06;5.75;;;2.00;;
58972;SDS011;44750;52.040;7.472;2023-08-24T16:03:07;3.20;;;1.80;;
58972;SDS011;44750;52.040;7.472;2023-08-24T16:08:07;2.42;;;1.73;;
58972;SDS011;44750;52.040;7.472;2023-08-24T16:13:07;3.42;;;1.95;;
58972;SDS011;44750;52.040;7.472;2023-08-24T16:18:08;13.67;;;2.20;;
58972;SDS011;44750;52.040;7.472;2023-08-24T16:23:09;1.60;;;1.42;;
58972;SDS011;44750;52.040;7.472;2023-08-24T16:28:09;3.30;;;1.60;;
58972;SDS011;44750;52.040;7.472;2023-08-24T16:33:09;7.35;;;1.42;;
58972;SDS011;44750;52.040;7.472;2023-08-24T16:38:10;1.58;;;1.35;;
58972;SDS011;44750;52.040;7.472;2023-08-24T16:43:10;2.27;;;1.37;;
58972;SDS011;44750;52.040;7.472;2023-08-24T16:48:10;3.47;;;1.98;;
58972;SDS011;44750;52.040;7.472;2023-08-24T16:53:11;5.00;;;3.67;;
58972;SDS011;44750;52.040;7.472;2023-08-24T16:58:11;2.50;;;1.77;;
58972;SDS011;44750;52.040;7.472;2023-08-24T17:03:11;4.68;;;1.50;;
58972;SDS011;44750;52.040;7.472;2023-08-24T17:08:12;3.13;;;1.40;;
58972;SDS011;44750;52.040;7.472;2023-08-24T17:13:12;1.52;;;1.25;;
58972;SDS011;44750;52.040;7.472;2023-08-24T17:18:12;5.22;;;1.60;;
58972;SDS011;44750;52.040;7.472;2023-08-24T17:23:13;11.30;;;1.55;;
58972;SDS011;44750;52.040;7.472;2023-08-24T17:28:13;3.95;;;1.45;;
58972;SDS011;44750;52.040;7.472;2023-08-24T17:33:14;6.43;;;1.70;;
58972;SDS011;44750;52.040;7.472;2023-08-24T17:38:14;3.53;;;2.25;;
58972;SDS011;44750;52.040;7.472;2023-08-24T17:43:14;2.28;;;1.60;;
58972;SDS011;44750;52.040;7.472;2023-08-24T17:48:14;2.17;;;1.30;;
58972;SDS011;44750;52.040;7.472;2023-08-24T17:53:15;6.03;;;2.47;;
58972;SDS011;44750;52.040;7.472;2023-08-24T17:58:15;4.25;;;2.47;;
58972;SDS011;44750;52.040;7.472;2023-08-24T18:03:15;1.90;;;1.52;;
58972;SDS011;44750;52.040;7.472;2023-08-24T18:08:18;1.98;;;1.48;;
58972;SDS011;44750;52.040;7.472;2023-08-24T18:13:18;2.58;;;1.63;;
58972;SDS011;44750;52.040;7.472;2023-08-24T18:18:19;2.53;;;1.38;;
58972;SDS011;44750;52.040;7.472;2023-08-24T18:23:19;2.65;;;1.58;;
58972;SDS011;44750;52.040;7.472;2023-08-24T18:28:19;2.65;;;1.90;;
58972;SDS011;44750;52.040;7.472;2023-08-24T18:33:19;3.88;;;1.50;;
58972;SDS011;44750;52.040;7.472;2023-08-24T18:38:20;1.85;;;1.50;;
58972;SDS011;44750;52.040;7.472;2023-08-24T18:43:21;12.45;;;2.15;;
58972;SDS011;44750;52.040;7.472;2023-08-24T18:48:21;2.70;;;1.70;;
58972;SDS011;44750;52.040;7.472;2023-08-24T18:53:22;4.47;;;1.63;;
58972;SDS011;44750;52.040;7.472;2023-08-24T18:58:22;2.30;;;1.53;;
58972;SDS011;44750;52.040;7.472;2023-08-24T19:03:22;5.28;;;2.67;;
58972;SDS011;44750;52.040;7.472;2023-08-24T19:08:22;5.28;;;2.00;;
58972;SDS011;44750;52.040;7.472;2023-08-24T19:13:25;1.52;;;1.15;;
58972;SDS011;44750;52.040;7.472;2023-08-24T19:18:26;3.13;;;1.87;;
58972;SDS011;44750;52.040;7.472;2023-08-24T19:23:26;3.83;;;1.60;;
58972;SDS011;44750;52.040;7.472;2023-08-24T19:28:26;3.72;;;1.60;;
58972;SDS011;44750;52.040;7.472;2023-08-24T19:33:27;2.35;;;1.60;;
58972;SDS011;44750;52.040;7.472;2023-08-24T19:38:27;1.63;;;1.27;;
58972;SDS011;44750;52.040;7.472;2023-08-24T19:43:27;2.53;;;1.58;;
58972;SDS011;44750;52.040;7.472;2023-08-24T19:48:28;2.03;;;1.20;;
58972;SDS011;44750;52.040;7.472;2023-08-24T19:53:28;2.88;;;1.48;;
58972;SDS011;44750;52.040;7.472;2023-08-24T19:58:28;1.85;;;1.48;;
58972;SDS011;44750;52.040;7.472;2023-08-24T20:03:28;2.00;;;1.77;;
58972;SDS011;44750;52.040;7.472;2023-08-24T20:08:29;5.28;;;3.88;;
58972;SDS011;44750;52.040;7.472;2023-08-24T20:13:29;20.77;;;12.32;;
58972;SDS011;44750;52.040;7.472;2023-08-24T20:18:29;12.55;;;7.22;;
58972;SDS011;44750;52.040;7.472;2023-08-24T20:23:29;4.10;;;2.20;;
58972;SDS011;44750;52.040;7.472;2023-08-24T20:28:30;2.83;;;1.37;;
58972;SDS011;44750;52.040;7.472;2023-08-24T20:33:31;2.30;;;1.63;;
58972;SDS011;44750;52.040;7.472;2023-08-24T20:38:31;10.43;;;2.00;;
58972;SDS011;44750;52.040;7.472;2023-08-24T20:43:32;2.00;;;1.73;;
58972;SDS011;44750;52.040;7.472;2023-08-24T20:48:32;20.80;;;1.58;;
58972;SDS011;44750;52.040;7.472;2023-08-24T20:53:32;1.65;;;1.38;;
58972;SDS011;44750;52.040;7.472;2023-08-24T20:58:32;5.40;;;1.80;;
58972;SDS011;44750;52.040;7.472;2023-08-24T21:03:32;4.07;;;1.60;;
58972;SDS011;44750;52.040;7.472;2023-08-24T21:08:33;5.88;;;1.80;;
58972;SDS011;44750;52.040;7.472;2023-08-24T21:13:33;3.40;;;1.90;;
58972;SDS011;44750;52.040;7.472;2023-08-24T21:18:33;3.78;;;1.50;;
58972;SDS011;44750;52.040;7.472;2023-08-24T21:23:33;1.90;;;1.48;;
58972;SDS011;44750;52.040;7.472;2023-08-24T21:28:34;2.10;;;1.63;;
58972;SDS011;44750;52.040;7.472;2023-08-24T21:33:34;3.97;;;1.63;;
58972;SDS011;44750;52.040;7.472;2023-08-24T21:38:34;5.32;;;2.10;;
58972;SDS011;44750;52.040;7.472;2023-08-24T21:43:35;2.80;;;2.00;;
58972;SDS011;44750;52.040;7.472;2023-08-24T21:48:35;1.70;;;1.40;;
58972;SDS011;44750;52.040;7.472;2023-08-24T21:53:35;4.55;;;2.00;;
58972;SDS011;44750;52.040;7.472;2023-08-24T21:58:36;5.65;;;2.25;;
58972;SDS011;44750;52.040;7.472;2023-08-24T22:03:36;1.77;;;1.30;;
58972;SDS011;44750;52.040;7.472;2023-08-24T22:08:36;1.70;;;1.60;;
58972;SDS011;44750;52.040;7.472;2023-08-24T22:13:36;2.58;;;1.92;;
58972;SDS011;44750;52.040;7.472;2023-08-24T22:18:37;2.70;;;1.63;;
58972;SDS011;44750;52.040;7.472;2023-08-24T22:23:37;2.50;;;1.80;;
58972;SDS011;44750;52.040;7.472;2023-08-24T22:28:37;4.95;;;1.90;;
58972;SDS011;44750;52.040;7.472;2023-08-24T22:33:37;3.33;;;2.10;;
58972;SDS011;44750;52.040;7.472;2023-08-24T22:38:37;1.95;;;1.58;;
58972;SDS011;44750;52.040;7.472;2023-08-24T22:43:38;2.67;;;1.25;;
58972;SDS011;44750;52.040;7.472;2023-08-24T22:48:38;4.22;;;2.10;;
58972;SDS011;44750;52.040;7.472;2023-08-24T22:53:38;4.00;;;2.00;;
58972;SDS011;44750;52.040;7.472;2023-08-24T22:58:38;3.08;;;2.17;;
58972;SDS011;44750;52.040;7.472;2023-08-24T23:03:39;3.15;;;2.22;;
58972;SDS011;44750;52.040;7.472;2023-08-24T23:08:39;8.38;;;2.25;;
58972;SDS011;44750;52.040;7.472;2023-08-24T23:13:40;3.38;;;2.17;;
58972;SDS011;44750;52.040;7.472;2023-08-24T23:18:40;3.63;;;2.13;;
58972;SDS011;44750;52.040;7.472;2023-08-24T23:23:41;3.10;;;2.10;;
58972;SDS011;44750;52.040;7.472;2023-08-24T23:28:41;2.92;;;2.10;;
58972;SDS011;44750;52.040;7.472;2023-08-24T23:33:41;3.60;;;2.13;;
58972;SDS011;44750;52.040;7.472;2023-08-24T23:38:41;2.92;;;2.35;;
58972;SDS011;44750;52.040;7.472;2023-08-24T23:43:41;3.22;;;2.53;;
58972;SDS011;44750;52.040;7.472;2023-08-24T23:48:42;7.82;;;2.78;;
58972;SDS011;44750;52.040;7.472;2023-08-24T23:53:42;2.40;;;2.13;;
58972;SDS011;44750;52.040;7.472;2023-08-24T23:58:42;2.25;;;2.05;;
